Time;durP1;ratioP1;P1;durP2;ratioP2;P2;SDS_P1;SDS_P2;PMS_P1;PMS_P2;Temp;Humidity;BMP_temperature;BMP_pressure;BME280_temperature;BME280_humidity;BME280_pressure;Samples;Min_cycle;Max_cycle;Signal;HPM_P1;HPM_P2
2023/07/05 00:00:22;;;;;;;;;;;;;;;;;;5112504;27;20360;-67
2023/07/05 00:02:48;;;;;;;;;;;;;;;;;;5111782;28;19995;-67
2023/07/05 00:05:14;;;;;;;;;;;;;;;;;;5111713;28;19944;-67
2023/07/05 00:08:21;;;;;;;;;;;;;;;;;;5091990;27;20280;-66
2023/07/05 00:13:11;;;;;;;;;;;;;;;;;;5153151;27;19934;-66
2023/07/05 00:15:38;;;;;;;;;;;;;;;;;;5153104;27;19911;-66
2023/07/05 00:22:39;;;;;;;;;;;;;;;;;;5091739;27;19916;-66
2023/07/05 00:25:05;;;;;;;;;;;;;;;;;;5090999;28;19912;-66
2023/07/05 00:27:31;;;;;;;;;;;;;;;;;;5091314;28;20391;-66
2023/07/05 00:29:57;;;;;;;;;;;;;;;;;;5091395;28;19954;-66
2023/07/05 00:32:23;;;;;;;;;;;;;;;;;;5090907;28;19908;-67
2023/07/05 00:38:40;;;;;;;;;;;;;;;;;;5111760;27;20295;-66
2023/07/05 00:42:35;;;;;;;;;;;;;;;;;;5153318;27;20393;-66
2023/07/05 00:45:00;;;;;;;;;;;;;;;;;;5152597;27;20009;-66
2023/07/05 00:47:26;;;;;;;;;;;;;;;;;;5152852;27;20340;-67
2023/07/05 00:50:46;;;;;;;;;;;;;;;;;;5092221;27;19917;-66
2023/07/05 00:53:12;;;;;;;;;;;;;;;;;;5090835;28;20003;-67
2023/07/05 00:55:38;;;;;;;;;;;;;;;;;;5091243;28;19950;-66
2023/07/05 01:05:11;;;;;;;;;;;;;;;;;;5153015;27;19915;-66
2023/07/05 01:07:37;;;;;;;;;;;;;;;;;;5152470;27;19998;-67
2023/07/05 01:12:33;;;;;;;;;;;;;;;;;;5091637;28;19927;-66
2023/07/05 01:15:01;;;;;;;;;;;;;;;;;;5091574;28;19976;-66
2023/07/05 01:17:27;;;;;;;;;;;;;;;;;;5091255;28;20372;-66
2023/07/05 01:19:53;;;;;;;;;;;;;;;;;;5091043;28;20028;-67
2023/07/05 01:22:19;;;;;;;;;;;;;;;;;;5091162;28;20007;-67
2023/07/05 01:24:48;;;;;;;;;;;;;;;;;;5091105;28;19916;-67
2023/07/05 01:36:16;;;;;;;;;;;;;;;;;;5112595;27;19916;-66
2023/07/05 01:43:24;;;;;;;;;;;;;;;;;;5112213;27;19916;-67
2023/07/05 01:47:41;;;;;;;;;;;;;;;;;;5091471;27;19916;-67
2023/07/05 01:53:41;;;;;;;;;;;;;;;;;;5174143;27;19915;-67
2023/07/05 01:56:06;;;;;;;;;;;;;;;;;;5173357;27;20371;-67
2023/07/05 01:58:32;;;;;;;;;;;;;;;;;;5173803;27;19911;-68
2023/07/05 02:00:58;;;;;;;;;;;;;;;;;;5173643;27;19918;-67
2023/07/05 02:03:24;;;;;;;;;;;;;;;;;;5173226;27;20002;-68
2023/07/05 02:06:37;;;;;;;;;;;;;;;;;;5112464;27;19916;-66
2023/07/05 02:09:03;;;;;;;;;;;;;;;;;;5110041;28;20340;-67
2023/07/05 02:11:29;;;;;;;;;;;;;;;;;;5110389;28;19969;-67
2023/07/05 02:13:55;;;;;;;;;;;;;;;;;;5111674;28;20002;-67
2023/07/05 02:16:20;;;;;;;;;;;;;;;;;;5111383;28;19908;-67
2023/07/05 02:20:50;;;;;;;;;;;;;;;;;;5091683;27;19922;-67
2023/07/05 02:23:16;;;;;;;;;;;;;;;;;;5090967;28;20007;-67
2023/07/05 02:28:11;;;;;;;;;;;;;;;;;;5112304;27;20379;-66
2023/07/05 02:32:59;;;;;;;;;;;;;;;;;;5153284;27;19998;-66
2023/07/05 02:38:04;;;;;;;;;;;;;;;;;;5111585;27;19916;-67
2023/07/05 02:40:30;;;;;;;;;;;;;;;;;;5111824;28;19912;-66
2023/07/05 02:42:56;;;;;;;;;;;;;;;;;;5111917;28;19961;-66
2023/07/05 02:48:37;;;;;;;;;;;;;;;;;;5091838;27;20302;-67
2023/07/05 02:51:03;;;;;;;;;;;;;;;;;;5091079;28;20335;-66
2023/07/05 02:53:29;;;;;;;;;;;;;;;;;;5090002;28;19909;-66
2023/07/05 02:57:21;;;;;;;;;;;;;;;;;;5092237;27;19916;-66
2023/07/05 02:59:47;;;;;;;;;;;;;;;;;;5091044;28;20011;-66
2023/07/05 03:02:13;;;;;;;;;;;;;;;;;;5091279;28;20368;-66
2023/07/05 03:06:24;;;;;;;;;;;;;;;;;;5111726;27;19922;-66
2023/07/05 03:08:50;;;;;;;;;;;;;;;;;;5111734;28;19912;-66
2023/07/05 03:11:16;;;;;;;;;;;;;;;;;;5111705;28;19908;-66
2023/07/05 03:15:39;;;;;;;;;;;;;;;;;;5091964;27;19916;-66
2023/07/05 03:18:05;;;;;;;;;;;;;;;;;;5091940;28;20444;-67
2023/07/05 03:22:20;;;;;;;;;;;;;;;;;;5091545;28;19917;-66
2023/07/05 03:24:46;;;;;;;;;;;;;;;;;;5091572;28;20006;-66
2023/07/05 03:27:30;;;;;;;;;;;;;;;;;;5111737;27;19916;-67
2023/07/05 03:33:56;;;;;;;;;;;;;;;;;;5091541;28;19923;-67
2023/07/05 03:36:22;;;;;;;;;;;;;;;;;;5091392;28;19999;-66
2023/07/05 03:38:48;;;;;;;;;;;;;;;;;;5091352;28;19946;-66
2023/07/05 03:41:14;;;;;;;;;;;;;;;;;;5090811;28;19908;-67
2023/07/05 03:44:55;;;;;;;;;;;;;;;;;;5091905;28;20276;-66
2023/07/05 03:47:20;;;;;;;;;;;;;;;;;;5090902;28;20007;-66
2023/07/05 03:49:46;;;;;;;;;;;;;;;;;;5091236;28;19915;-66
2023/07/05 03:52:12;;;;;;;;;;;;;;;;;;5091318;28;19954;-66
2023/07/05 03:56:01;;;;;;;;;;;;;;;;;;5091152;28;20296;-67
2023/07/05 03:58:46;;;;;;;;;;;;;;;;;;5112225;27;19916;-66
2023/07/05 04:01:14;;;;;;;;;;;;;;;;;;5111809;28;20003;-66
2023/07/05 04:05:44;;;;;;;;;;;;;;;;;;5091506;27;19916;-66
2023/07/05 04:08:10;;;;;;;;;;;;;;;;;;5091535;28;20352;-66
2023/07/05 04:11:31;;;;;;;;;;;;;;;;;;5173932;27;19911;-66
2023/07/05 04:13:57;;;;;;;;;;;;;;;;;;5173692;27;19972;-66
2023/07/05 04:16:24;;;;;;;;;;;;;;;;;;5173205;27;19911;-67
2023/07/05 04:21:51;;;;;;;;;;;;;;;;;;5111903;27;19916;-67
2023/07/05 04:26:41;;;;;;;;;;;;;;;;;;5111798;27;19916;-66
2023/07/05 04:32:28;;;;;;;;;;;;;;;;;;5112028;27;19922;-66
2023/07/05 04:34:54;;;;;;;;;;;;;;;;;;5110455;28;20003;-67
2023/07/05 04:37:20;;;;;;;;;;;;;;;;;;5111200;28;19954;-66
2023/07/05 04:39:45;;;;;;;;;;;;;;;;;;5111721;28;19926;-66
2023/07/05 04:43:46;;;;;;;;;;;;;;;;;;5091413;28;19917;-67
2023/07/05 04:48:58;;;;;;;;;;;;;;;;;;5112488;27;20292;-67
2023/07/05 04:51:24;;;;;;;;;;;;;;;;;;5111381;28;20006;-66
2023/07/05 04:53:50;;;;;;;;;;;;;;;;;;5111669;28;19951;-67
2023/07/05 04:58:37;;;;;;;;;;;;;;;;;;5111787;27;19916;-66
2023/07/05 05:03:05;;;;;;;;;;;;;;;;;;5111823;27;19939;-67
2023/07/05 05:05:31;;;;;;;;;;;;;;;;;;5111517;28;20323;-67
2023/07/05 05:07:57;;;;;;;;;;;;;;;;;;5111694;28;19912;-67
2023/07/05 05:10:37;;;;;;;;;;;;;;;;;;5091751;27;19923;-66
2023/07/05 05:16:00;;;;;;;;;;;;;;;;;;5092176;27;19916;-66
2023/07/05 05:18:39;;;;;;;;;;;;;;;;;;5091564;27;19923;-67
2023/07/05 05:24:51;;;;;;;;;;;;;;;;;;5112579;27;20276;-66
2023/07/05 05:27:17;;;;;;;;;;;;;;;;;;5111315;28;20014;-66
2023/07/05 05:30:11;;;;;;;;;;;;;;;;;;5111775;27;19916;-66
2023/07/05 05:32:37;;;;;;;;;;;;;;;;;;5111784;28;20010;-66
2023/07/05 05:36:03;;;;;;;;;;;;;;;;;;5109614;27;19920;-66
2023/07/05 05:38:29;;;;;;;;;;;;;;;;;;5111574;28;20011;-66
2023/07/05 05:40:55;;;;;;;;;;;;;;;;;;5091607;28;19954;-66
2023/07/05 05:44:45;;;;;;;;;;;;;;;;;;5091189;27;19916;-66
2023/07/05 05:48:08;;;;;;;;;;;;;;;;;;5070761;28;19923;-66
2023/07/05 05:50:34;;;;;;;;;;;;;;;;;;5069979;28;19995;-66
2023/07/05 05:52:59;;;;;;;;;;;;;;;;;;5068684;28;19909;-66
2023/07/05 05:55:25;;;;;;;;;;;;;;;;;;5069450;28;19909;-66
2023/07/05 05:57:51;;;;;;;;;;;;;;;;;;5070558;28;19951;-66
2023/07/05 06:02:52;;;;;;;;;;;;;;;;;;5136393;27;19920;-66
2023/07/05 06:05:17;;;;;;;;;;;;;;;;;;5113354;28;19912;-67
2023/07/05 06:09:00;;;;;;;;;;;;;;;;;;5111138;27;19912;-66
2023/07/05 06:12:02;;;;;;;;;;;;;;;;;;5089708;27;19916;-66
2023/07/05 06:14:28;;;;;;;;;;;;;;;;;;5084762;28;20357;-65
2023/07/05 06:16:54;;;;;;;;;;;;;;;;;;5087125;28;19920;-65
2023/07/05 06:19:20;;;;;;;;;;;;;;;;;;5079956;28;19956;-64
2023/07/05 06:21:46;;;;;;;;;;;;;;;;;;5087835;28;19912;-66
2023/07/05 06:24:12;;;;;;;;;;;;;;;;;;5088060;28;19961;-65
2023/07/05 06:26:38;;;;;;;;;;;;;;;;;;5087977;28;19916;-67
2023/07/05 06:29:04;;;;;;;;;;;;;;;;;;5085496;28;20420;-68
2023/07/05 06:34:03;;;;;;;;;;;;;;;;;;5087469;28;19919;-68
2023/07/05 06:36:29;;;;;;;;;;;;;;;;;;5087160;28;19935;-67
2023/07/05 06:40:45;;;;;;;;;;;;;;;;;;5089099;28;19913;-67
2023/07/05 06:43:11;;;;;;;;;;;;;;;;;;5087594;28;20353;-68
2023/07/05 06:45:37;;;;;;;;;;;;;;;;;;5089523;28;20011;-66
2023/07/05 06:48:02;;;;;;;;;;;;;;;;;;5098608;28;19997;-69
2023/07/05 06:50:28;;;;;;;;;;;;;;;;;;5088399;28;19913;-68
2023/07/05 06:52:54;;;;;;;;;;;;;;;;;;5091082;28;19954;-67
2023/07/05 06:55:20;;;;;;;;;;;;;;;;;;5090287;28;19912;-67
2023/07/05 06:58:26;;;;;;;;;;;;;;;;;;5090592;27;20003;-69
2023/07/05 07:02:01;;;;;;;;;;;;;;;;;;5087240;27;19927;-67
2023/07/05 07:04:27;;;;;;;;;;;;;;;;;;5086391;28;19912;-67
2023/07/05 07:08:43;;;;;;;;;;;;;;;;;;5148623;27;20022;-68
2023/07/05 07:11:08;;;;;;;;;;;;;;;;;;5137806;27;19954;-67
2023/07/05 07:14:46;;;;;;;;;;;;;;;;;;5088095;27;19939;-67
2023/07/05 07:19:25;;;;;;;;;;;;;;;;;;5086534;27;19926;-67
2023/07/05 07:23:32;;;;;;;;;;;;;;;;;;5087137;28;19920;-70
2023/07/05 07:28:02;;;;;;;;;;;;;;;;;;5106753;27;19927;-68
2023/07/05 07:30:28;;;;;;;;;;;;;;;;;;5095330;28;19912;-66
2023/07/05 07:34:42;;;;;;;;;;;;;;;;;;5114140;27;19920;-68
2023/07/05 07:37:08;;;;;;;;;;;;;;;;;;5131820;28;20394;-67
2023/07/05 07:39:34;;;;;;;;;;;;;;;;;;5131229;28;19956;-68
2023/07/05 07:42:00;;;;;;;;;;;;;;;;;;5120476;28;19908;-67
2023/07/05 07:44:26;;;;;;;;;;;;;;;;;;5122742;28;19912;-67
2023/07/05 07:46:52;;;;;;;;;;;;;;;;;;5108357;28;19908;-66
2023/07/05 07:51:52;;;;;;;;;;;;;;;;;;5088272;27;19920;-66
2023/07/05 07:54:18;;;;;;;;;;;;;;;;;;5086153;28;20040;-66
2023/07/05 08:00:09;;;;;;;;;;;;;;;;;;5106473;27;19920;-67
2023/07/05 08:02:35;;;;;;;;;;;;;;;;;;5109757;28;20602;-67
2023/07/05 08:05:01;;;;;;;;;;;;;;;;;;5108613;28;20010;-66
2023/07/05 08:09:22;;;;;;;;;;;;;;;;;;5089032;27;19917;-66
2023/07/05 08:11:48;;;;;;;;;;;;;;;;;;5086983;28;20006;-66
2023/07/05 08:14:15;;;;;;;;;;;;;;;;;;5087214;28;20007;-66
2023/07/05 08:16:41;;;;;;;;;;;;;;;;;;5087293;28;20254;-67
2023/07/05 08:19:07;;;;;;;;;;;;;;;;;;5086381;28;19966;-65
2023/07/05 08:22:38;;;;;;;;;;;;;;;;;;5086236;27;19927;-65
2023/07/05 08:25:04;;;;;;;;;;;;;;;;;;5073863;28;19912;-66
2023/07/05 08:27:30;;;;;;;;;;;;;;;;;;5069393;28;19913;-66
2023/07/05 08:29:56;;;;;;;;;;;;;;;;;;5075604;28;19912;-66
2023/07/05 08:32:22;;;;;;;;;;;;;;;;;;5070078;28;20000;-67
2023/07/05 08:34:49;;;;;;;;;;;;;;;;;;5068879;28;19912;-66
2023/07/05 08:37:15;;;;;;;;;;;;;;;;;;5066723;28;19978;-67
2023/07/05 08:39:41;;;;;;;;;;;;;;;;;;5081242;28;19959;-67
2023/07/05 08:42:06;;;;;;;;;;;;;;;;;;5067308;28;19929;-67
2023/07/05 08:44:32;;;;;;;;;;;;;;;;;;5066856;28;19913;-67
2023/07/05 08:46:58;;;;;;;;;;;;;;;;;;5067672;28;20003;-68
2023/07/05 08:49:24;;;;;;;;;;;;;;;;;;5066196;28;19916;-67
2023/07/05 08:51:50;;;;;;;;;;;;;;;;;;5081460;28;20372;-67
2023/07/05 08:54:16;;;;;;;;;;;;;;;;;;5083972;28;19917;-66
2023/07/05 08:56:42;;;;;;;;;;;;;;;;;;5069027;28;20369;-68
2023/07/05 08:59:08;;;;;;;;;;;;;;;;;;5073270;28;19917;-66
2023/07/05 09:01:34;;;;;;;;;;;;;;;;;;5070866;28;19925;-68
2023/07/05 09:04:00;;;;;;;;;;;;;;;;;;5075995;28;19956;-68
2023/07/05 09:06:26;;;;;;;;;;;;;;;;;;5080883;28;19912;-68
2023/07/05 09:08:53;;;;;;;;;;;;;;;;;;5090197;28;19915;-68
2023/07/05 09:11:19;;;;;;;;;;;;;;;;;;5086383;28;19958;-67
2023/07/05 09:13:46;;;;;;;;;;;;;;;;;;5068054;28;19948;-68
2023/07/05 09:16:12;;;;;;;;;;;;;;;;;;5084400;28;19912;-68
2023/07/05 09:18:38;;;;;;;;;;;;;;;;;;5089119;28;20373;-68
2023/07/05 09:21:04;;;;;;;;;;;;;;;;;;5088850;28;20450;-68
2023/07/05 09:23:30;;;;;;;;;;;;;;;;;;5089574;28;19913;-70
2023/07/05 09:25:55;;;;;;;;;;;;;;;;;;5076232;28;19970;-70
2023/07/05 09:28:21;;;;;;;;;;;;;;;;;;5078283;28;19920;-68
2023/07/05 09:30:47;;;;;;;;;;;;;;;;;;5079431;28;19920;-68
2023/07/05 09:33:13;;;;;;;;;;;;;;;;;;5067115;28;19917;-69
2023/07/05 09:35:39;;;;;;;;;;;;;;;;;;5052801;28;19913;-69
2023/07/05 09:38:05;;;;;;;;;;;;;;;;;;5060019;28;19978;-68
2023/07/05 09:40:31;;;;;;;;;;;;;;;;;;5062380;28;19916;-68
2023/07/05 09:42:57;;;;;;;;;;;;;;;;;;5073062;28;19927;-68
2023/07/05 09:45:23;;;;;;;;;;;;;;;;;;5064203;28;20273;-67
2023/07/05 09:47:50;;;;;;;;;;;;;;;;;;5070195;28;19909;-69
2023/07/05 09:50:16;;;;;;;;;;;;;;;;;;5054984;28;19913;-68
2023/07/05 09:52:42;;;;;;;;;;;;;;;;;;5053904;28;20012;-68
2023/07/05 09:55:10;;;;;;;;;;;;;;;;;;5051894;28;20272;-68
2023/07/05 09:57:38;;;;;;;;;;;;;;;;;;5052675;28;20266;-68
2023/07/05 10:00:05;;;;;;;;;;;;;;;;;;5055161;28;20332;-69
2023/07/05 10:02:31;;;;;;;;;;;;;;;;;;5054236;28;19920;-68
2023/07/05 10:04:58;;;;;;;;;;;;;;;;;;5053134;28;19915;-68
2023/07/05 10:07:24;;;;;;;;;;;;;;;;;;5054990;28;19921;-68
2023/07/05 10:09:50;;;;;;;;;;;;;;;;;;5055027;28;20023;-68
2023/07/05 10:12:16;;;;;;;;;;;;;;;;;;5062419;28;20003;-68
2023/07/05 10:14:42;;;;;;;;;;;;;;;;;;5074947;28;19908;-69
2023/07/05 10:17:08;;;;;;;;;;;;;;;;;;5075506;28;19909;-68
2023/07/05 10:19:34;;;;;;;;;;;;;;;;;;5061122;28;19916;-69
2023/07/05 10:22:01;;;;;;;;;;;;;;;;;;5064222;28;20407;-68
2023/07/05 10:24:27;;;;;;;;;;;;;;;;;;5058334;28;19913;-67
2023/07/05 10:26:53;;;;;;;;;;;;;;;;;;5055228;28;19916;-68
2023/07/05 10:29:19;;;;;;;;;;;;;;;;;;5055675;28;19928;-68
2023/07/05 10:31:45;;;;;;;;;;;;;;;;;;5065974;28;19919;-68
2023/07/05 10:34:11;;;;;;;;;;;;;;;;;;5075193;28;19909;-68
2023/07/05 10:36:37;;;;;;;;;;;;;;;;;;5064113;28;19917;-67
2023/07/05 10:39:04;;;;;;;;;;;;;;;;;;5054943;28;19909;-68
2023/07/05 10:41:30;;;;;;;;;;;;;;;;;;5059669;28;20361;-66
2023/07/05 10:43:55;;;;;;;;;;;;;;;;;;5055757;28;19967;-67
2023/07/05 10:46:22;;;;;;;;;;;;;;;;;;5053886;28;20449;-67
2023/07/05 10:48:48;;;;;;;;;;;;;;;;;;5066204;28;19940;-68
2023/07/05 10:51:14;;;;;;;;;;;;;;;;;;5053709;28;19952;-68
2023/07/05 10:53:40;;;;;;;;;;;;;;;;;;5053919;28;19909;-68
2023/07/05 10:56:06;;;;;;;;;;;;;;;;;;5054112;28;19908;-68
2023/07/05 10:58:32;;;;;;;;;;;;;;;;;;5053971;28;19962;-68
2023/07/05 11:00:58;;;;;;;;;;;;;;;;;;5052898;28;19917;-68
2023/07/05 11:03:24;;;;;;;;;;;;;;;;;;5063701;28;19912;-69
2023/07/05 11:05:50;;;;;;;;;;;;;;;;;;5073318;28;20280;-69
2023/07/05 11:08:16;;;;;;;;;;;;;;;;;;5074611;28;20284;-68
2023/07/05 11:10:42;;;;;;;;;;;;;;;;;;5074362;28;19908;-69
2023/07/05 11:13:08;;;;;;;;;;;;;;;;;;5074511;28;19912;-69
2023/07/05 11:15:34;;;;;;;;;;;;;;;;;;5074354;28;19935;-69
2023/07/05 11:18:00;;;;;;;;;;;;;;;;;;5074060;28;20441;-68
2023/07/05 11:20:26;;;;;;;;;;;;;;;;;;5071096;28;19955;-68
2023/07/05 11:22:52;;;;;;;;;;;;;;;;;;5074109;28;20011;-68
2023/07/05 11:25:18;;;;;;;;;;;;;;;;;;5073796;28;19912;-69
2023/07/05 11:27:44;;;;;;;;;;;;;;;;;;5072608;28;19958;-69
2023/07/05 11:30:10;;;;;;;;;;;;;;;;;;5074214;28;19955;-68
2023/07/05 11:34:53;;;;;;;;;;;;;;;;;;5111300;27;19923;-67
2023/07/05 11:37:19;;;;;;;;;;;;;;;;;;5111210;28;19961;-68
2023/07/05 11:39:51;;;;;;;;;;;;;;;;;;5115251;28;19908;-68
2023/07/05 11:42:19;;;;;;;;;;;;;;;;;;5100393;28;19912;-68
2023/07/05 11:44:45;;;;;;;;;;;;;;;;;;5112382;28;19909;-68
2023/07/05 11:47:11;;;;;;;;;;;;;;;;;;5110640;28;19935;-68
2023/07/05 11:49:37;;;;;;;;;;;;;;;;;;5111195;28;19916;-69
2023/07/05 11:52:03;;;;;;;;;;;;;;;;;;5111264;28;19908;-67
2023/07/05 11:54:29;;;;;;;;;;;;;;;;;;5110799;28;19927;-68
2023/07/05 11:56:55;;;;;;;;;;;;;;;;;;5125494;28;20287;-67
2023/07/05 11:59:21;;;;;;;;;;;;;;;;;;5111191;28;19963;-68
2023/07/05 12:04:05;;;;;;;;;;;;;;;;;;5152722;27;19918;-68
2023/07/05 12:06:31;;;;;;;;;;;;;;;;;;5151539;27;19959;-68
2023/07/05 12:08:57;;;;;;;;;;;;;;;;;;5152333;27;19908;-67
2023/07/05 12:11:23;;;;;;;;;;;;;;;;;;5151311;27;19922;-68
2023/07/05 12:13:49;;;;;;;;;;;;;;;;;;5152271;27;19918;-68
2023/07/05 12:16:15;;;;;;;;;;;;;;;;;;5158069;27;19993;-67
2023/07/05 12:18:41;;;;;;;;;;;;;;;;;;5155715;27;19919;-70
2023/07/05 12:21:30;;;;;;;;;;;;;;;;;;5069802;28;20369;-70
2023/07/05 12:27:36;;;;;;;;;;;;;;;;;;5092166;27;19916;-69
2023/07/05 12:32:01;;;;;;;;;;;;;;;;;;5091419;27;19917;-71
2023/07/05 12:36:44;;;;;;;;;;;;;;;;;;5111486;27;19922;-69
2023/07/05 12:41:13;;;;;;;;;;;;;;;;;;5153447;27;20377;-70
2023/07/05 12:45:51;;;;;;;;;;;;;;;;;;5091547;27;20411;-69
2023/07/05 12:48:17;;;;;;;;;;;;;;;;;;5091313;28;19912;-69
2023/07/05 12:50:43;;;;;;;;;;;;;;;;;;5089409;28;19954;-68
2023/07/05 12:53:43;;;;;;;;;;;;;;;;;;5152917;27;19911;-69
2023/07/05 12:59:02;;;;;;;;;;;;;;;;;;5091456;28;19913;-68
2023/07/05 13:01:29;;;;;;;;;;;;;;;;;;5091281;28;19920;-68
2023/07/05 13:03:55;;;;;;;;;;;;;;;;;;5089429;28;19954;-69
2023/07/05 13:06:21;;;;;;;;;;;;;;;;;;5089834;28;19908;-68
2023/07/05 13:10:37;;;;;;;;;;;;;;;;;;5091062;27;20299;-69
2023/07/05 13:13:04;;;;;;;;;;;;;;;;;;5091417;28;19967;-70
2023/07/05 13:20:37;;;;;;;;;;;;;;;;;;5091544;28;19923;-68
2023/07/05 13:23:05;;;;;;;;;;;;;;;;;;5091392;28;19965;-68
2023/07/05 13:27:05;;;;;;;;;;;;;;;;;;5111827;27;19916;-68
2023/07/05 13:29:31;;;;;;;;;;;;;;;;;;5111779;28;19998;-69
2023/07/05 13:31:57;;;;;;;;;;;;;;;;;;5111332;28;19968;-67
2023/07/05 13:35:43;;;;;;;;;;;;;;;;;;5111863;27;19916;-68
2023/07/05 13:38:09;;;;;;;;;;;;;;;;;;5111334;28;19912;-68
2023/07/05 13:40:35;;;;;;;;;;;;;;;;;;5111413;28;20325;-69
2023/07/05 13:45:12;;;;;;;;;;;;;;;;;;5152360;27;20002;-69
2023/07/05 13:48:32;;;;;;;;;;;;;;;;;;5111603;27;19916;-68
2023/07/05 13:50:58;;;;;;;;;;;;;;;;;;5110290;28;19912;-70
2023/07/05 13:53:24;;;;;;;;;;;;;;;;;;5109860;28;19915;-69
2023/07/05 13:56:08;;;;;;;;;;;;;;;;;;5152915;27;20363;-69
2023/07/05 13:58:34;;;;;;;;;;;;;;;;;;5152862;27;19918;-69
2023/07/05 14:08:58;;;;;;;;;;;;;;;;;;5111924;27;19916;-69
2023/07/05 14:13:50;;;;;;;;;;;;;;;;;;5091097;27;19913;-69
2023/07/05 14:18:39;;;;;;;;;;;;;;;;;;5173722;27;20009;-69
2023/07/05 14:21:06;;;;;;;;;;;;;;;;;;5173374;27;19915;-69
2023/07/05 14:24:09;;;;;;;;;;;;;;;;;;5055672;27;2744513;-68
2023/07/05 14:26:36;;;;;;;;;;;;;;;;;;5152990;27;19911;-70
2023/07/05 14:29:02;;;;;;;;;;;;;;;;;;5152447;27;19947;-71
2023/07/05 14:33:44;;;;;;;;;;;;;;;;;;5111924;27;19916;-69
2023/07/05 14:38:30;;;;;;;;;;;;;;;;;;5091989;27;19916;-70
2023/07/05 14:47:42;;;;;;;;;;;;;;;;;;5092096;28;19916;-69
2023/07/05 14:50:08;;;;;;;;;;;;;;;;;;5091068;28;20003;-69
2023/07/05 14:52:33;;;;;;;;;;;;;;;;;;5091222;28;19954;-70
2023/07/05 14:55:00;;;;;;;;;;;;;;;;;;5091337;28;19915;-70
2023/07/05 14:58:07;;;;;;;;;;;;;;;;;;5173892;27;20255;-69
2023/07/05 15:00:33;;;;;;;;;;;;;;;;;;5173667;27;19918;-69
2023/07/05 15:05:13;;;;;;;;;;;;;;;;;;5153026;27;19933;-69
2023/07/05 15:08:37;;;;;;;;;;;;;;;;;;5092094;27;19939;-71
2023/07/05 15:11:03;;;;;;;;;;;;;;;;;;5091035;28;20436;-70
2023/07/05 15:13:29;;;;;;;;;;;;;;;;;;5091230;28;19912;-69
2023/07/05 15:15:55;;;;;;;;;;;;;;;;;;5091260;28;20418;-70
2023/07/05 15:18:21;;;;;;;;;;;;;;;;;;5089562;28;19916;-70
2023/07/05 15:22:57;;;;;;;;;;;;;;;;;;5092218;27;19916;-69
2023/07/05 15:25:23;;;;;;;;;;;;;;;;;;5091033;28;20341;-70
2023/07/05 15:29:07;;;;;;;;;;;;;;;;;;5092135;27;20280;-70
2023/07/05 15:35:50;;;;;;;;;;;;;;;;;;5091487;27;20295;-70
2023/07/05 15:38:15;;;;;;;;;;;;;;;;;;5090998;28;20003;-70
2023/07/05 15:40:41;;;;;;;;;;;;;;;;;;5091331;28;19908;-70
2023/07/05 15:43:09;;;;;;;;;;;;;;;;;;5091474;28;20257;-71
2023/07/05 15:46:12;;;;;;;;;;;;;;;;;;5091311;27;19916;-70
2023/07/05 15:49:46;;;;;;;;;;;;;;;;;;5091390;28;19919;-69
2023/07/05 15:53:37;;;;;;;;;;;;;;;;;;5173347;27;19911;-70
2023/07/05 15:56:03;;;;;;;;;;;;;;;;;;5155006;27;19918;-68
2023/07/05 15:58:30;;;;;;;;;;;;;;;;;;5173374;27;19959;-68
2023/07/05 16:01:00;;;;;;;;;;;;;;;;;;5173157;27;19953;-68
2023/07/05 16:03:26;;;;;;;;;;;;;;;;;;5173479;27;19913;-68
2023/07/05 16:06:46;;;;;;;;;;;;;;;;;;5152698;27;19934;-68
2023/07/05 16:10:34;;;;;;;;;;;;;;;;;;5152923;27;19912;-69
2023/07/05 16:13:01;;;;;;;;;;;;;;;;;;5133849;27;20060;-69
2023/07/05 16:15:50;;;;;;;;;;;;;;;;;;5111527;27;19918;-70
2023/07/05 16:19:03;;;;;;;;;;;;;;;;;;5091311;28;19912;-68
2023/07/05 16:21:29;;;;;;;;;;;;;;;;;;5089473;28;19919;-69
2023/07/05 16:26:34;;;;;;;;;;;;;;;;;;5111778;27;20279;-68
2023/07/05 16:29:00;;;;;;;;;;;;;;;;;;5111458;28;19912;-69
2023/07/05 16:33:47;;;;;;;;;;;;;;;;;;5091768;27;19916;-69
2023/07/05 16:37:30;;;;;;;;;;;;;;;;;;5091476;27;19922;-68
2023/07/05 16:44:10;;;;;;;;;;;;;;;;;;5112058;27;20291;-68
2023/07/05 16:48:45;;;;;;;;;;;;;;;;;;5111839;27;19916;-70
2023/07/05 16:57:38;;;;;;;;;;;;;;;;;;5091694;27;19923;-70
2023/07/05 17:01:16;;;;;;;;;;;;;;;;;;5091416;27;19916;-68
2023/07/05 17:06:05;;;;;;;;;;;;;;;;;;5153421;27;19915;-70
2023/07/05 17:08:31;;;;;;;;;;;;;;;;;;5153246;27;19918;-69
2023/07/05 17:10:57;;;;;;;;;;;;;;;;;;5152520;27;20268;-69
2023/07/05 17:13:23;;;;;;;;;;;;;;;;;;5152755;27;19907;-70
2023/07/05 17:15:49;;;;;;;;;;;;;;;;;;5152642;27;20287;-70
2023/07/05 17:18:15;;;;;;;;;;;;;;;;;;5152207;27;19907;-67
2023/07/05 17:22:54;;;;;;;;;;;;;;;;;;5111767;27;20376;-68
2023/07/05 17:25:20;;;;;;;;;;;;;;;;;;5111322;28;19912;-68
2023/07/05 17:27:46;;;;;;;;;;;;;;;;;;5111880;28;19912;-68
2023/07/05 17:31:17;;;;;;;;;;;;;;;;;;5091065;27;19916;-70
2023/07/05 17:35:18;;;;;;;;;;;;;;;;;;5111740;27;19923;-69
2023/07/05 17:39:47;;;;;;;;;;;;;;;;;;5111796;27;19916;-70
2023/07/05 17:47:47;;;;;;;;;;;;;;;;;;5090546;28;20299;-70
2023/07/05 17:50:13;;;;;;;;;;;;;;;;;;5091152;28;19912;-69
2023/07/05 17:52:39;;;;;;;;;;;;;;;;;;5090817;28;20270;-69
2023/07/05 17:59:23;;;;;;;;;;;;;;;;;;5090801;28;19913;-68
2023/07/05 18:03:14;;;;;;;;;;;;;;;;;;5111770;27;19916;-69
2023/07/05 18:06:57;;;;;;;;;;;;;;;;;;5091021;27;19917;-68
2023/07/05 18:16:13;;;;;;;;;;;;;;;;;;5091474;27;19939;-69
2023/07/05 18:18:39;;;;;;;;;;;;;;;;;;5091338;28;19999;-69
2023/07/05 18:21:05;;;;;;;;;;;;;;;;;;5090838;28;19978;-66
2023/07/05 18:23:31;;;;;;;;;;;;;;;;;;5090014;28;19966;-69
2023/07/05 18:25:57;;;;;;;;;;;;;;;;;;5090990;28;19908;-70
2023/07/05 18:30:15;;;;;;;;;;;;;;;;;;5112205;27;19916;-70
2023/07/05 18:34:30;;;;;;;;;;;;;;;;;;5091178;28;19916;-71
2023/07/05 18:36:56;;;;;;;;;;;;;;;;;;5089956;28;19912;-68
2023/07/05 18:39:22;;;;;;;;;;;;;;;;;;5091286;28;19908;-70
2023/07/05 18:42:32;;;;;;;;;;;;;;;;;;5050876;28;19913;-68
2023/07/05 18:49:13;;;;;;;;;;;;;;;;;;5152703;27;20454;-70
2023/07/05 18:51:39;;;;;;;;;;;;;;;;;;5152841;27;20290;-70
2023/07/05 18:54:05;;;;;;;;;;;;;;;;;;5152848;27;19914;-68
2023/07/05 18:56:31;;;;;;;;;;;;;;;;;;5152425;27;19911;-69
2023/07/05 19:00:05;;;;;;;;;;;;;;;;;;5153478;27;20367;-69
2023/07/05 19:07:16;;;;;;;;;;;;;;;;;;5112119;27;20379;-70
2023/07/05 19:09:42;;;;;;;;;;;;;;;;;;5111465;28;20003;-70
2023/07/05 19:12:08;;;;;;;;;;;;;;;;;;5111727;28;19915;-70
2023/07/05 19:14:34;;;;;;;;;;;;;;;;;;5111660;28;19908;-70
2023/07/05 19:17:00;;;;;;;;;;;;;;;;;;5111251;28;19908;-70
2023/07/05 19:19:25;;;;;;;;;;;;;;;;;;5111537;28;20303;-68
2023/07/05 19:21:52;;;;;;;;;;;;;;;;;;5111537;28;20303;-70
2023/07/05 19:24:17;;;;;;;;;;;;;;;;;;5109750;28;19915;-69
2023/07/05 19:28:57;;;;;;;;;;;;;;;;;;5173801;27;19911;-69
2023/07/05 19:33:28;;;;;;;;;;;;;;;;;;5091965;27;20275;-69
2023/07/05 19:35:54;;;;;;;;;;;;;;;;;;5091552;28;20007;-70
2023/07/05 19:40:09;;;;;;;;;;;;;;;;;;5112167;27;19916;-70
2023/07/05 19:42:35;;;;;;;;;;;;;;;;;;5112027;28;20003;-70
2023/07/05 19:45:03;;;;;;;;;;;;;;;;;;5111409;28;19908;-70
2023/07/05 19:49:08;;;;;;;;;;;;;;;;;;5112026;27;20380;-70
2023/07/05 19:52:37;;;;;;;;;;;;;;;;;;5152768;27;19922;-70
2023/07/05 20:05:44;;;;;;;;;;;;;;;;;;5152816;27;19912;-71
2023/07/05 20:08:10;;;;;;;;;;;;;;;;;;5152875;27;19912;-70
2023/07/05 20:13:08;;;;;;;;;;;;;;;;;;5111604;27;20307;-70
2023/07/05 20:16:13;;;;;;;;;;;;;;;;;;5174005;27;19911;-70
2023/07/05 20:18:39;;;;;;;;;;;;;;;;;;5174147;27;20371;-69
2023/07/05 20:21:05;;;;;;;;;;;;;;;;;;5173241;27;19907;-69
2023/07/05 20:23:31;;;;;;;;;;;;;;;;;;5173643;27;20259;-69
2023/07/05 20:25:57;;;;;;;;;;;;;;;;;;5173508;27;19907;-70
2023/07/05 20:31:11;;;;;;;;;;;;;;;;;;5091879;27;19916;-71
2023/07/05 20:38:04;;;;;;;;;;;;;;;;;;5111970;27;19912;-71
2023/07/05 20:40:29;;;;;;;;;;;;;;;;;;5111476;28;19916;-71
2023/07/05 20:44:47;;;;;;;;;;;;;;;;;;5112536;27;19916;-70
2023/07/05 20:48:13;;;;;;;;;;;;;;;;;;5091196;28;19918;-71
2023/07/05 20:51:58;;;;;;;;;;;;;;;;;;5112447;27;20291;-71
2023/07/05 21:09:05;;;;;;;;;;;;;;;;;;5111894;27;19970;-71
2023/07/05 21:11:31;;;;;;;;;;;;;;;;;;5111677;28;20253;-69
2023/07/05 21:14:21;;;;;;;;;;;;;;;;;;5111905;27;19912;-70
2023/07/05 21:19:24;;;;;;;;;;;;;;;;;;5112230;27;20295;-70
2023/07/05 21:24:03;;;;;;;;;;;;;;;;;;5111624;27;19918;-69
2023/07/05 21:26:29;;;;;;;;;;;;;;;;;;5110382;28;20003;-72
2023/07/05 21:31:07;;;;;;;;;;;;;;;;;;5091119;27;19923;-69
2023/07/05 21:33:33;;;;;;;;;;;;;;;;;;5091448;28;19951;-70
2023/07/05 21:37:01;;;;;;;;;;;;;;;;;;5091232;27;19922;-70
2023/07/05 21:40:46;;;;;;;;;;;;;;;;;;5112127;27;19939;-69
2023/07/05 21:43:52;;;;;;;;;;;;;;;;;;5111680;27;19916;-69
2023/07/05 21:46:18;;;;;;;;;;;;;;;;;;5111721;28;20003;-70
2023/07/05 21:56:41;;;;;;;;;;;;;;;;;;5111840;27;20298;-69
2023/07/05 21:59:07;;;;;;;;;;;;;;;;;;5111276;28;19934;-70
2023/07/05 22:01:48;;;;;;;;;;;;;;;;;;5153282;27;20446;-69
2023/07/05 22:04:14;;;;;;;;;;;;;;;;;;5152879;27;20340;-69
2023/07/05 22:06:40;;;;;;;;;;;;;;;;;;5152429;27;19911;-70
2023/07/05 22:09:06;;;;;;;;;;;;;;;;;;5153182;27;19907;-69
2023/07/05 22:14:59;;;;;;;;;;;;;;;;;;5153489;27;20015;-68
2023/07/05 22:19:11;;;;;;;;;;;;;;;;;;5152827;27;20398;-69
2023/07/05 22:22:44;;;;;;;;;;;;;;;;;;5153260;27;19938;-69